Bowerston, Ohio
Current Conditions -  °F | °C
As of 1:53 AM on Thursday 18 Dec 2014 (Local Time) from KPHD Reporting Station
Overcast Overcast  
Wind Chill: 20°   Ceiling: 2400
Heat Index: 29°   Visibility: 10mi
Dew Point: 19°   Wind: 9mph
Humidity: 67%   Direction: 300°WNW
Pressure: 30.2"   Gusts: 20mph
Location:  40.43°N, 81.19°W
Report Text: KPHD 180653Z AUTO 30008G17KT 10SM OVC024 M02/M07 A3020 RMK AO2 SLP237 T10171072
Loading
Personal Weather Stations






























Interactive Weather Map New forecast layout! Learn more

10-Day Weather Forecast

Advertisements
Track Severe Weather on mobile